Time;durP1;ratioP1;P1;durP2;ratioP2;P2;SDS_P1;SDS_P2;PMS_P1;PMS_P2;Temp;Humidity;BMP_temperature;BMP_pressure;BME280_temperature;BME280_humidity;BME280_pressure;Samples;Min_cycle;Max_cycle;Signal;HPM_P1;HPM_P2
2022/03/03 00:02:14;;;;;;;3.33;2.30;;;-1.70;99.90;;;;;;5071024;28;20543;-70
2022/03/03 00:04:39;;;;;;;5.28;2.75;;;-1.80;99.90;;;;;;5070884;28;20247;-69
2022/03/03 00:07:06;;;;;;;4.00;2.90;;;-2.10;99.90;;;;;;5070990;28;20244;-70
2022/03/03 00:09:32;;;;;;;7.20;3.42;;;-2.30;99.90;;;;;;5070993;28;20196;-69
2022/03/03 00:11:58;;;;;;;7.82;2.83;;;-2.40;99.90;;;;;;5087099;28;20212;-69
2022/03/03 00:14:24;;;;;;;9.55;3.13;;;-2.20;99.90;;;;;;5089640;28;20259;-69
2022/03/03 00:16:50;;;;;;;5.80;2.88;;;-2.20;99.90;;;;;;5083447;28;20171;-68
2022/03/03 00:19:16;;;;;;;5.85;3.00;;;-2.00;99.90;;;;;;5071280;28;20207;-68
2022/03/03 00:21:42;;;;;;;7.57;3.47;;;-1.90;99.90;;;;;;5070649;28;20196;-69
2022/03/03 00:24:08;;;;;;;6.13;3.40;;;-1.70;99.90;;;;;;5079961;28;20736;-69
2022/03/03 00:26:34;;;;;;;5.35;2.60;;;-1.70;99.90;;;;;;5078667;28;20184;-69
2022/03/03 00:29:00;;;;;;;7.07;3.53;;;-1.70;99.90;;;;;;5070653;28;20171;-68
2022/03/03 00:31:26;;;;;;;9.02;2.50;;;-1.70;99.90;;;;;;5070509;28;20189;-69
2022/03/03 00:33:52;;;;;;;4.85;2.13;;;-1.80;99.90;;;;;;5070488;28;20192;-69
2022/03/03 00:36:17;;;;;;;5.47;2.70;;;-1.90;99.90;;;;;;5069147;28;20161;-69
2022/03/03 00:38:43;;;;;;;3.47;3.10;;;-1.90;99.90;;;;;;5070444;28;20168;-69
2022/03/03 00:41:09;;;;;;;6.38;2.42;;;-1.90;99.90;;;;;;5070353;28;20181;-69
2022/03/03 00:43:35;;;;;;;4.93;2.85;;;-2.00;99.90;;;;;;5078241;28;20176;-69
2022/03/03 00:46:01;;;;;;;8.00;2.85;;;-2.00;99.90;;;;;;5069174;28;20180;-70
2022/03/03 00:48:27;;;;;;;7.13;2.85;;;-2.10;99.90;;;;;;5070068;28;20214;-69
2022/03/03 00:50:53;;;;;;;3.15;1.98;;;-2.00;99.90;;;;;;5070066;28;20160;-69
2022/03/03 00:53:19;;;;;;;3.33;1.67;;;-2.00;99.90;;;;;;5070193;28;20161;-69
2022/03/03 00:55:45;;;;;;;6.18;2.45;;;-2.10;99.90;;;;;;5070116;28;20153;-69
2022/03/03 00:58:11;;;;;;;6.28;2.15;;;-2.10;99.90;;;;;;5069935;28;20197;-69
2022/03/03 01:00:37;;;;;;;7.53;2.80;;;-2.10;99.90;;;;;;5069098;28;20168;-69
2022/03/03 01:03:02;;;;;;;5.22;1.88;;;-2.10;99.90;;;;;;5068034;28;20220;-69
2022/03/03 01:05:28;;;;;;;5.40;2.78;;;-2.20;99.90;;;;;;5068534;28;20211;-69
2022/03/03 01:07:54;;;;;;;4.60;2.50;;;-2.20;99.90;;;;;;5069727;28;20197;-69
2022/03/03 01:10:20;;;;;;;3.88;2.00;;;-2.10;99.90;;;;;;5068507;28;20214;-69
2022/03/03 01:12:47;;;;;;;5.82;2.90;;;-2.00;99.90;;;;;;5068517;28;20188;-68
2022/03/03 01:15:13;;;;;;;5.57;2.05;;;-2.00;99.90;;;;;;5069717;28;20625;-69
2022/03/03 01:17:40;;;;;;;8.65;3.22;;;-2.00;99.90;;;;;;5069612;28;20242;-68
2022/03/03 01:20:08;;;;;;;6.20;2.95;;;-2.00;99.90;;;;;;5069626;28;20157;-69
2022/03/03 01:22:34;;;;;;;4.30;3.17;;;-2.10;99.90;;;;;;5068278;28;20168;-69
2022/03/03 01:25:00;;;;;;;7.05;2.53;;;-2.00;99.90;;;;;;5069074;28;20190;-69
2022/03/03 01:27:26;;;;;;;8.60;2.78;;;-2.00;99.90;;;;;;5069357;28;20216;-69
2022/03/03 01:29:52;;;;;;;4.93;2.95;;;-2.10;99.90;;;;;;5074252;28;20211;-69
2022/03/03 01:32:18;;;;;;;3.38;2.25;;;-2.30;99.90;;;;;;5074428;28;20175;-69
2022/03/03 01:34:44;;;;;;;7.57;2.38;;;-2.30;99.90;;;;;;5086539;28;20582;-69
2022/03/03 01:37:10;;;;;;;5.05;2.10;;;-2.40;99.90;;;;;;5087167;28;20164;-69
2022/03/03 01:39:36;;;;;;;3.75;1.95;;;-2.70;99.90;;;;;;5068105;28;20204;-69
2022/03/03 01:42:02;;;;;;;5.47;2.22;;;-2.90;99.90;;;;;;5068392;28;20349;-69
2022/03/03 01:44:28;;;;;;;4.95;2.40;;;-3.10;99.90;;;;;;5068977;28;20165;-69
2022/03/03 01:46:57;;;;;;;6.60;1.88;;;-3.20;99.90;;;;;;5067747;28;20176;-69
2022/03/03 01:49:25;;;;;;;2.90;1.75;;;-3.20;99.90;;;;;;5068889;28;20187;-69
2022/03/03 01:51:52;;;;;;;4.68;2.58;;;-3.20;99.90;;;;;;5068882;28;20200;-68
2022/03/03 01:54:18;;;;;;;3.75;1.80;;;-3.30;99.90;;;;;;5067832;28;20276;-69
2022/03/03 01:56:46;;;;;;;5.55;2.38;;;-3.30;99.90;;;;;;5069140;28;20153;-68
2022/03/03 01:59:14;;;;;;;8.30;2.30;;;-3.40;99.90;;;;;;5069052;28;20153;-69
2022/03/03 02:01:41;;;;;;;10.48;3.15;;;-3.50;99.90;;;;;;5068978;28;20191;-69
2022/03/03 02:04:09;;;;;;;15.65;2.67;;;-3.50;99.90;;;;;;5081854;28;20216;-68
2022/03/03 02:06:37;;;;;;;8.40;2.75;;;-3.70;99.90;;;;;;5086434;28;20665;-69
2022/03/03 02:09:03;;;;;;;4.95;2.92;;;-3.70;99.90;;;;;;5068957;28;20172;-69
2022/03/03 02:11:31;;;;;;;6.70;2.25;;;-3.80;99.90;;;;;;5068947;28;20188;-69
2022/03/03 02:13:57;;;;;;;3.80;2.28;;;-3.60;99.90;;;;;;5068885;28;20153;-70
2022/03/03 02:16:24;;;;;;;4.72;2.33;;;-3.60;99.90;;;;;;5068989;28;20240;-69
2022/03/03 02:18:50;;;;;;;2.88;2.08;;;-3.50;99.90;;;;;;5068885;28;20161;-68
2022/03/03 02:21:16;;;;;;;3.53;1.73;;;-3.00;99.90;;;;;;5067416;28;20168;-68
2022/03/03 02:23:43;;;;;;;5.13;2.55;;;-2.80;99.90;;;;;;5068973;28;20164;-68
2022/03/03 02:26:15;;;;;;;5.40;2.05;;;-2.80;99.90;;;;;;5068818;28;20168;-68
2022/03/03 02:28:42;;;;;;;5.32;2.15;;;-2.70;99.90;;;;;;5068721;28;20188;-68
2022/03/03 02:31:08;;;;;;;7.72;2.22;;;-2.70;99.90;;;;;;5071345;28;20169;-69
2022/03/03 02:33:34;;;;;;;4.03;2.55;;;-2.60;99.90;;;;;;5068706;28;20165;-68
2022/03/03 02:36:19;;;;;;;4.97;2.17;;;-2.70;99.90;;;;;;5068883;28;20229;-69
2022/03/03 02:38:47;;;;;;;10.00;2.40;;;-2.80;99.90;;;;;;5088847;28;20186;-68
2022/03/03 02:41:13;;;;;;;4.95;2.72;;;-2.80;99.90;;;;;;5092701;28;20160;-69
2022/03/03 02:43:40;;;;;;;4.57;1.60;;;-2.90;99.90;;;;;;5091430;28;20168;-68
2022/03/03 02:46:07;;;;;;;3.72;2.30;;;-2.90;99.90;;;;;;5092585;28;20164;-68
2022/03/03 02:48:33;;;;;;;4.97;2.28;;;-3.10;99.90;;;;;;5091220;28;20203;-68
2022/03/03 02:50:59;;;;;;;6.18;2.20;;;-3.40;99.90;;;;;;5091031;28;20193;-68
2022/03/03 02:53:26;;;;;;;4.65;2.15;;;-3.60;99.90;;;;;;5092569;28;20605;-69
2022/03/03 02:55:53;;;;;;;3.65;1.83;;;-3.60;99.90;;;;;;5092384;28;20182;-69
2022/03/03 02:58:18;;;;;;;7.97;2.78;;;-3.70;99.90;;;;;;5084729;28;20200;-69
2022/03/03 03:00:46;;;;;;;5.90;2.38;;;-3.70;99.90;;;;;;5072244;28;20172;-68
2022/03/03 03:03:13;;;;;;;5.05;2.45;;;-3.80;99.90;;;;;;5073187;28;20258;-69
2022/03/03 03:05:39;;;;;;;7.25;2.65;;;-3.90;99.90;;;;;;5092219;28;20171;-70
2022/03/03 03:08:06;;;;;;;2.50;1.92;;;-3.60;99.90;;;;;;5092089;28;20195;-69
2022/03/03 03:10:32;;;;;;;2.80;2.00;;;-3.50;99.90;;;;;;5092108;28;20156;-69
2022/03/03 03:12:58;;;;;;;5.88;3.05;;;-3.70;99.90;;;;;;5092039;28;20267;-69
2022/03/03 03:15:24;;;;;;;5.50;2.95;;;-3.90;99.90;;;;;;5091984;28;20171;-69
2022/03/03 03:17:50;;;;;;;7.68;2.80;;;-4.10;99.90;;;;;;5092005;28;20160;-68
2022/03/03 03:20:17;;;;;;;7.00;3.22;;;-4.20;99.90;;;;;;5091937;28;20192;-69
2022/03/03 03:22:42;;;;;;;3.85;2.50;;;-4.20;99.90;;;;;;5090684;28;20616;-68
2022/03/03 03:25:12;;;;;;;6.60;2.83;;;-4.30;99.90;;;;;;5085034;28;20200;-68
2022/03/03 03:27:41;;;;;;;4.97;2.72;;;-4.40;99.90;;;;;;5070377;28;20583;-68
2022/03/03 03:30:09;;;;;;;9.80;3.00;;;-4.40;99.90;;;;;;5076113;28;20179;-68
2022/03/03 03:32:35;;;;;;;3.50;2.17;;;-4.50;99.90;;;;;;5091474;28;20196;-68
2022/03/03 03:35:04;;;;;;;3.97;2.58;;;-4.30;99.90;;;;;;5075501;28;20203;-69
2022/03/03 03:37:30;;;;;;;3.20;1.90;;;-4.40;99.90;;;;;;5070122;28;20215;-68
2022/03/03 03:39:56;;;;;;;7.88;3.50;;;-4.50;99.90;;;;;;5070374;28;20169;-68
2022/03/03 03:42:22;;;;;;;4.78;2.58;;;-4.50;99.90;;;;;;5071420;28;20192;-68
2022/03/03 03:44:48;;;;;;;12.70;2.60;;;-4.60;99.90;;;;;;5069113;28;20160;-68
2022/03/03 03:47:14;;;;;;;5.88;3.35;;;-4.80;99.90;;;;;;5069819;28;20192;-68
2022/03/03 03:49:40;;;;;;;6.60;3.17;;;-4.80;99.90;;;;;;5071318;28;20528;-69
2022/03/03 03:52:07;;;;;;;8.43;2.60;;;-4.80;99.90;;;;;;5079339;28;20206;-69
2022/03/03 03:54:33;;;;;;;12.45;3.10;;;-4.80;99.90;;;;;;5089878;28;20255;-68
2022/03/03 03:56:58;;;;;;;6.28;3.28;;;-4.80;99.90;;;;;;5091144;28;20163;-68
2022/03/03 03:59:24;;;;;;;7.28;4.18;;;-4.50;99.90;;;;;;5091232;28;20160;-68
2022/03/03 04:01:50;;;;;;;11.80;3.50;;;-4.60;99.90;;;;;;5091132;28;20247;-69
2022/03/03 04:04:16;;;;;;;12.32;3.78;;;-4.70;99.90;;;;;;5089570;28;20283;-69
2022/03/03 04:06:42;;;;;;;16.23;4.25;;;-4.70;99.90;;;;;;5089675;28;20164;-69
2022/03/03 04:09:08;;;;;;;15.95;3.95;;;-4.80;99.90;;;;;;5090975;28;20160;-69
2022/03/03 04:11:34;;;;;;;5.00;3.10;;;-4.80;99.90;;;;;;5090834;28;20184;-69
2022/03/03 04:14:00;;;;;;;11.00;3.88;;;-4.90;99.90;;;;;;5090853;28;20152;-68
2022/03/03 04:16:26;;;;;;;7.88;3.58;;;-5.00;99.90;;;;;;5090806;28;20148;-68
2022/03/03 04:18:53;;;;;;;8.15;3.45;;;-5.00;99.90;;;;;;5081623;28;20183;-68
2022/03/03 04:21:19;;;;;;;7.38;3.97;;;-4.90;99.90;;;;;;5070791;28;20763;-68
2022/03/03 04:23:45;;;;;;;11.85;4.97;;;-4.90;99.90;;;;;;5069268;28;20207;-68
2022/03/03 04:26:11;;;;;;;7.13;3.83;;;-5.00;99.90;;;;;;5070656;28;20187;-69
2022/03/03 04:28:37;;;;;;;6.05;2.70;;;-5.00;99.90;;;;;;5070478;28;20548;-69
2022/03/03 04:31:04;;;;;;;7.28;3.38;;;-4.90;99.90;;;;;;5070486;28;20651;-68
2022/03/03 04:33:30;;;;;;;15.50;7.03;;;-4.50;99.90;;;;;;5070451;28;20168;-69
2022/03/03 04:35:57;;;;;;;10.50;4.32;;;-4.50;99.90;;;;;;5069041;28;20243;-68
2022/03/03 04:38:24;;;;;;;7.05;4.57;;;-4.60;99.90;;;;;;5069114;28;20165;-68
2022/03/03 04:40:50;;;;;;;7.80;4.13;;;-4.70;99.90;;;;;;5068840;28;20202;-69
2022/03/03 04:43:16;;;;;;;5.90;3.78;;;-4.80;99.90;;;;;;5069994;28;20216;-69
2022/03/03 04:45:42;;;;;;;13.77;4.20;;;-4.90;99.90;;;;;;5070644;28;20556;-69
2022/03/03 04:48:09;;;;;;;10.02;3.70;;;-5.00;99.90;;;;;;5084868;28;20672;-68
2022/03/03 04:50:35;;;;;;;7.07;3.58;;;-5.10;99.90;;;;;;5089962;28;20163;-68
2022/03/03 04:53:01;;;;;;;10.20;3.35;;;-5.20;99.90;;;;;;5090129;28;20174;-68
2022/03/03 04:55:27;;;;;;;5.43;3.20;;;-5.30;99.90;;;;;;5089881;28;20157;-68
2022/03/03 04:57:53;;;;;;;14.10;4.15;;;-5.40;99.90;;;;;;5090015;28;20165;-68
2022/03/03 05:00:19;;;;;;;7.85;3.70;;;-5.50;99.90;;;;;;5089052;28;20168;-68
2022/03/03 05:02:45;;;;;;;7.40;4.65;;;-5.50;99.90;;;;;;5088186;28;20230;-68
2022/03/03 05:05:10;;;;;;;8.93;4.30;;;-5.50;99.90;;;;;;5088475;28;20179;-68
2022/03/03 05:07:36;;;;;;;8.50;4.18;;;-5.40;99.90;;;;;;5087917;28;20180;-68
2022/03/03 05:10:04;;;;;;;11.75;5.30;;;-5.30;99.90;;;;;;5088543;28;20144;-68
2022/03/03 05:12:29;;;;;;;12.10;6.38;;;-5.30;99.90;;;;;;5078095;28;20247;-68
2022/03/03 05:14:56;;;;;;;11.23;6.32;;;-5.20;99.90;;;;;;5068684;28;20157;-68
2022/03/03 05:17:22;;;;;;;18.30;7.85;;;-5.00;99.90;;;;;;5068694;28;20156;-68
2022/03/03 05:19:48;;;;;;;14.35;6.97;;;-5.00;99.90;;;;;;5068463;28;20161;-69
2022/03/03 05:22:14;;;;;;;10.57;5.88;;;-5.00;99.90;;;;;;5068849;28;20836;-68
2022/03/03 05:24:40;;;;;;;18.42;6.32;;;-4.90;99.90;;;;;;5069979;28;20561;-68
2022/03/03 05:27:06;;;;;;;19.05;5.30;;;-4.90;99.90;;;;;;5069177;28;20208;-68
2022/03/03 05:29:32;;;;;;;17.80;5.95;;;-4.80;99.90;;;;;;5069250;28;20169;-68
2022/03/03 05:31:58;;;;;;;12.60;6.40;;;-4.80;99.90;;;;;;5070275;28;20200;-68
2022/03/03 05:34:26;;;;;;;12.60;5.63;;;-4.90;99.90;;;;;;5070131;28;20603;-69
2022/03/03 05:36:52;;;;;;;13.52;5.82;;;-5.00;99.90;;;;;;5069034;28;20315;-69
2022/03/03 05:39:20;;;;;;;15.93;6.70;;;-5.10;99.90;;;;;;5068482;28;20192;-68
2022/03/03 05:41:46;;;;;;;13.82;6.38;;;-5.30;99.90;;;;;;5068786;28;20161;-69
2022/03/03 05:44:12;;;;;;;14.48;6.68;;;-5.30;99.90;;;;;;5067413;28;20169;-68
2022/03/03 05:46:42;;;;;;;13.52;5.93;;;-5.40;99.90;;;;;;5068646;28;20149;-69
2022/03/03 05:49:09;;;;;;;11.73;5.95;;;-5.40;99.90;;;;;;5068661;28;20212;-69
2022/03/03 05:51:35;;;;;;;10.70;5.80;;;-5.30;99.90;;;;;;5068901;28;20168;-69
2022/03/03 05:54:02;;;;;;;12.18;5.72;;;-5.30;99.90;;;;;;5068626;28;20248;-69
2022/03/03 05:56:32;;;;;;;13.90;5.70;;;-5.30;99.90;;;;;;5067434;28;20177;-69
2022/03/03 05:59:02;;;;;;;11.48;6.30;;;-5.30;99.90;;;;;;5068453;28;20213;-68
2022/03/03 06:01:28;;;;;;;9.35;6.07;;;-5.30;99.90;;;;;;5068740;28;20176;-68
2022/03/03 06:03:58;;;;;;;16.73;6.05;;;-5.30;99.90;;;;;;5067016;28;20291;-69
2022/03/03 06:06:34;;;;;;;8.38;5.18;;;-5.30;99.90;;;;;;5068490;28;20256;-68
2022/03/03 06:09:11;;;;;;;10.57;6.43;;;-5.30;99.90;;;;;;5068327;28;20241;-69
2022/03/03 06:12:09;;;;;;;9.75;6.38;;;-5.20;99.90;;;;;;5073796;28;20589;-67
2022/03/03 06:14:51;;;;;;;14.85;5.53;;;-5.20;99.90;;;;;;5074748;28;20238;-68
2022/03/03 06:17:21;;;;;;;12.20;6.57;;;-5.10;99.90;;;;;;5075033;28;20234;-68
2022/03/03 06:19:49;;;;;;;9.07;5.70;;;-5.10;99.90;;;;;;5075160;28;20160;-67
2022/03/03 06:22:16;;;;;;;18.65;7.57;;;-5.00;99.90;;;;;;5073034;28;20187;-67
2022/03/03 06:24:42;;;;;;;22.83;4.38;;;-4.90;99.90;;;;;;5072972;28;20183;-67
2022/03/03 06:27:09;;;;;;;9.88;5.43;;;-4.70;99.90;;;;;;5073497;28;20200;-68
2022/03/03 06:29:38;;;;;;;16.95;5.32;;;-4.60;99.90;;;;;;5089244;28;20168;-68
2022/03/03 06:32:05;;;;;;;16.58;5.50;;;-4.50;99.90;;;;;;5075246;28;20170;-68
2022/03/03 06:34:31;;;;;;;8.93;5.07;;;-4.40;99.90;;;;;;5073300;28;20654;-67
2022/03/03 06:36:57;;;;;;;11.75;6.28;;;-4.30;99.90;;;;;;5074851;28;20157;-67
2022/03/03 06:39:23;;;;;;;10.13;5.15;;;-4.20;99.90;;;;;;5074831;28;20179;-68
2022/03/03 06:41:50;;;;;;;10.15;4.07;;;-4.10;99.90;;;;;;5073683;28;20169;-67
2022/03/03 06:44:16;;;;;;;10.70;4.60;;;-3.80;99.90;;;;;;5074863;28;20153;-67
2022/03/03 06:46:42;;;;;;;9.38;4.63;;;-3.60;99.90;;;;;;5073535;28;20200;-67
2022/03/03 06:49:07;;;;;;;13.50;5.25;;;-3.00;99.90;;;;;;5074487;28;20196;-68
2022/03/03 06:51:46;;;;;;;10.77;4.95;;;-2.90;99.90;;;;;;5073582;28;20176;-67
2022/03/03 06:54:23;;;;;;;11.45;5.60;;;-2.60;99.90;;;;;;5074832;28;20155;-68
2022/03/03 06:56:54;;;;;;;12.98;6.18;;;-2.30;99.90;;;;;;5074828;28;20251;-68
2022/03/03 06:59:22;;;;;;;15.07;6.43;;;-2.10;99.90;;;;;;5074863;28;20174;-67
2022/03/03 07:01:49;;;;;;;14.68;4.95;;;-1.70;99.90;;;;;;5081200;28;20180;-68
2022/03/03 07:04:18;;;;;;;17.75;4.68;;;-1.50;99.90;;;;;;5073174;28;20273;-68
2022/03/03 07:06:45;;;;;;;12.48;4.95;;;-1.60;99.90;;;;;;5074614;28;20210;-67
2022/03/03 07:09:12;;;;;;;8.18;3.85;;;-1.70;99.90;;;;;;5074772;28;20278;-67
2022/03/03 07:11:39;;;;;;;9.93;3.92;;;-1.70;99.90;;;;;;5073446;28;20165;-68
2022/03/03 07:14:06;;;;;;;6.88;4.25;;;-1.60;99.90;;;;;;5074759;28;20168;-67
2022/03/03 07:16:49;;;;;;;11.93;3.22;;;-1.40;99.90;;;;;;5072941;28;20192;-67
2022/03/03 07:19:48;;;;;;;4.13;2.58;;;-1.30;99.90;;;;;;5087799;28;20179;-68
2022/03/03 07:22:35;;;;;;;5.45;2.97;;;-1.10;99.90;;;;;;5091761;28;20171;-68
2022/03/03 07:25:03;;;;;;;9.40;3.60;;;-0.90;99.90;;;;;;5075534;28;20203;-70
2022/03/03 07:27:29;;;;;;;9.85;4.90;;;-0.60;99.90;;;;;;5091640;28;20663;-68
2022/03/03 07:30:02;;;;;;;7.80;3.90;;;0.60;99.90;;;;;;5091091;28;20640;-68
2022/03/03 07:32:45;;;;;;;15.68;5.30;;;1.20;99.90;;;;;;5091437;28;20157;-68
2022/03/03 07:35:14;;;;;;;10.23;4.03;;;0.40;99.90;;;;;;5069992;28;20200;-69
2022/03/03 07:37:55;;;;;;;10.57;3.72;;;0.30;99.90;;;;;;5071403;28;20160;-68
2022/03/03 07:40:22;;;;;;;8.70;4.80;;;0.50;99.90;;;;;;5071314;28;20231;-68
2022/03/03 07:42:49;;;;;;;8.55;3.47;;;0.60;99.90;;;;;;5071206;28;20694;-69
2022/03/03 07:45:14;;;;;;;13.35;5.30;;;0.70;99.90;;;;;;5069794;28;20187;-70
2022/03/03 07:47:41;;;;;;;8.68;4.43;;;1.00;99.90;;;;;;5071059;28;20192;-69
2022/03/03 07:50:08;;;;;;;13.40;5.85;;;1.40;99.90;;;;;;5071059;28;20178;-69
2022/03/03 07:52:34;;;;;;;12.63;6.32;;;1.70;99.90;;;;;;5071022;28;20168;-69
2022/03/03 07:55:01;;;;;;;15.05;6.28;;;2.10;99.90;;;;;;5080884;28;20172;-68
2022/03/03 07:57:36;;;;;;;14.30;6.68;;;2.10;99.90;;;;;;5090091;28;20160;-69
2022/03/03 08:00:13;;;;;;;14.93;6.80;;;2.40;99.90;;;;;;5089443;28;20192;-68
2022/03/03 08:02:44;;;;;;;13.43;6.20;;;2.70;99.40;;;;;;5111082;28;20281;-69
2022/03/03 08:05:11;;;;;;;15.13;6.13;;;3.90;97.80;;;;;;5109901;28;20175;-69
2022/03/03 08:07:45;;;;;;;13.13;7.57;;;6.40;95.00;;;;;;5110666;28;20209;-69
2022/03/03 08:10:14;;;;;;;17.92;8.93;;;8.60;92.40;;;;;;5087696;28;20165;-69
2022/03/03 08:12:42;;;;;;;23.75;8.82;;;10.20;90.30;;;;;;5070742;28;20141;-68
2022/03/03 08:15:10;;;;;;;19.88;8.43;;;11.60;88.00;;;;;;5080360;28;20202;-69
2022/03/03 08:17:36;;;;;;;19.83;8.63;;;11.90;85.90;;;;;;5089979;28;20207;-69
2022/03/03 08:20:06;;;;;;;15.55;8.50;;;12.10;85.30;;;;;;5083277;28;20192;-69
2022/03/03 08:22:32;;;;;;;19.35;9.15;;;12.50;83.30;;;;;;5090306;28;20529;-69
2022/03/03 08:24:58;;;;;;;16.48;7.75;;;13.10;81.90;;;;;;5070822;28;20185;-67
2022/03/03 08:27:26;;;;;;;16.27;8.05;;;13.30;80.80;;;;;;5082017;28;20210;-68
2022/03/03 08:29:54;;;;;;;24.98;8.77;;;13.20;82.30;;;;;;5085014;28;20199;-67
2022/03/03 08:32:23;;;;;;;14.07;8.10;;;14.10;79.50;;;;;;5083533;28;20270;-67
2022/03/03 08:34:54;;;;;;;16.42;7.93;;;13.60;80.30;;;;;;5086890;28;20159;-67
2022/03/03 08:37:35;;;;;;;16.15;8.05;;;14.20;79.30;;;;;;5086845;28;20168;-67
2022/03/03 08:40:03;;;;;;;12.80;6.53;;;14.60;77.90;;;;;;5088491;28;20354;-67
2022/03/03 08:42:38;;;;;;;16.95;7.40;;;15.20;75.40;;;;;;5088707;28;20160;-68
2022/03/03 08:45:07;;;;;;;16.67;6.75;;;14.70;75.10;;;;;;5089215;28;20167;-67
2022/03/03 08:47:33;;;;;;;16.27;6.90;;;15.00;75.60;;;;;;5089890;28;20190;-68
2022/03/03 08:50:09;;;;;;;13.20;5.85;;;13.70;75.80;;;;;;5090110;28;20153;-68
2022/03/03 08:52:39;;;;;;;8.85;5.25;;;14.70;77.30;;;;;;5090144;28;20186;-68
2022/03/03 08:55:10;;;;;;;11.52;5.97;;;15.10;73.30;;;;;;5079101;28;20173;-68
2022/03/03 08:57:40;;;;;;;12.25;5.53;;;15.80;73.20;;;;;;5069810;28;20223;-68
2022/03/03 09:00:09;;;;;;;14.35;6.63;;;16.80;72.10;;;;;;5077011;28;20196;-68
2022/03/03 09:02:36;;;;;;;13.55;6.05;;;17.50;68.20;;;;;;5085569;28;20223;-67
2022/03/03 09:05:03;;;;;;;16.25;6.50;;;17.00;69.90;;;;;;5081849;28;20191;-67
2022/03/03 09:07:30;;;;;;;13.30;6.55;;;16.10;70.30;;;;;;5080298;28;20211;-68
2022/03/03 09:09:56;;;;;;;13.77;7.00;;;15.90;72.40;;;;;;5086942;28;20172;-67
2022/03/03 09:12:23;;;;;;;9.65;6.13;;;15.70;72.50;;;;;;5089605;28;20190;-67
2022/03/03 09:14:49;;;;;;;12.25;6.30;;;14.90;70.90;;;;;;5077090;28;20210;-67
2022/03/03 09:17:15;;;;;;;13.73;5.85;;;13.90;75.10;;;;;;5069552;28;20618;-66
2022/03/03 09:19:41;;;;;;;9.32;6.05;;;14.70;72.10;;;;;;5081605;28;20310;-67
2022/03/03 09:22:07;;;;;;;14.75;5.55;;;15.10;70.00;;;;;;5079835;28;20161;-66
2022/03/03 09:24:33;;;;;;;15.65;5.13;;;15.70;67.60;;;;;;5069992;28;20168;-67
2022/03/03 09:26:59;;;;;;;8.55;4.57;;;16.20;67.20;;;;;;5089240;28;20152;-67
2022/03/03 09:29:26;;;;;;;11.48;4.75;;;16.60;69.30;;;;;;5088890;28;20192;-67
2022/03/03 09:31:52;;;;;;;10.23;4.65;;;15.90;66.40;;;;;;5069726;28;20191;-67
2022/03/03 09:34:18;;;;;;;10.77;4.78;;;14.30;67.00;;;;;;5080518;28;20196;-67
2022/03/03 09:36:44;;;;;;;9.07;5.70;;;14.30;71.20;;;;;;5086539;28;20190;-67
2022/03/03 09:39:10;;;;;;;8.35;5.10;;;15.20;68.70;;;;;;5088478;28;20702;-67
2022/03/03 09:41:36;;;;;;;10.13;5.47;;;14.90;68.50;;;;;;5088159;28;20168;-67
2022/03/03 09:44:02;;;;;;;10.93;5.93;;;13.20;71.70;;;;;;5089044;28;20222;-68
2022/03/03 09:46:28;;;;;;;11.05;5.68;;;13.60;72.10;;;;;;5084553;28;20232;-68
2022/03/03 09:48:54;;;;;;;8.30;5.65;;;14.20;69.70;;;;;;5069958;28;20215;-68
2022/03/03 09:51:19;;;;;;;8.18;4.65;;;13.80;71.30;;;;;;5072819;28;20161;-68
2022/03/03 09:53:49;;;;;;;12.35;5.78;;;13.80;71.20;;;;;;5068911;28;20200;-68
2022/03/03 09:56:15;;;;;;;10.05;5.60;;;13.90;71.50;;;;;;5068856;28;20157;-68
2022/03/03 09:58:41;;;;;;;8.13;5.30;;;13.80;71.10;;;;;;5068768;28;20192;-68
2022/03/03 10:01:08;;;;;;;10.77;5.93;;;13.50;72.90;;;;;;5068699;28;20157;-68
2022/03/03 10:03:36;;;;;;;14.65;5.53;;;13.80;72.50;;;;;;5068304;28;20231;-67
2022/03/03 10:06:02;;;;;;;12.38;5.80;;;14.00;72.80;;;;;;5068747;28;20240;-68
2022/03/03 10:08:30;;;;;;;11.32;5.20;;;13.00;72.10;;;;;;5067322;28;20196;-67
2022/03/03 10:10:59;;;;;;;9.73;5.53;;;12.60;74.30;;;;;;5067314;28;20161;-67
2022/03/03 10:13:27;;;;;;;9.73;5.75;;;13.30;73.10;;;;;;5072375;28;20188;-68
2022/03/03 10:15:54;;;;;;;10.73;4.85;;;13.50;69.70;;;;;;5068622;28;20157;-67
2022/03/03 10:18:22;;;;;;;10.07;4.50;;;13.80;72.00;;;;;;5068557;28;20181;-68
2022/03/03 10:20:55;;;;;;;5.55;3.53;;;13.40;68.90;;;;;;5067703;28;20172;-67
2022/03/03 10:23:31;;;;;;;6.22;4.10;;;14.40;66.90;;;;;;5087204;28;20178;-67
2022/03/03 10:25:59;;;;;;;8.57;3.60;;;15.50;65.60;;;;;;5088504;28;20155;-67
2022/03/03 10:28:28;;;;;;;4.95;3.58;;;15.50;60.30;;;;;;5087266;28;20188;-67
2022/03/03 10:31:03;;;;;;;8.07;3.33;;;15.30;66.00;;;;;;5088689;28;20150;-67
2022/03/03 10:33:32;;;;;;;8.07;3.70;;;15.40;65.90;;;;;;5088477;28;20187;-67
2022/03/03 10:36:11;;;;;;;6.88;3.53;;;16.00;63.50;;;;;;5088526;28;20156;-68
2022/03/03 10:38:56;;;;;;;6.50;3.58;;;14.20;63.20;;;;;;5087003;28;20175;-67
2022/03/03 10:41:42;;;;;;;7.85;3.65;;;14.10;63.00;;;;;;5088450;28;20169;-67
2022/03/03 10:44:09;;;;;;;6.95;3.10;;;14.10;61.60;;;;;;5068232;28;20206;-67
2022/03/03 10:46:38;;;;;;;5.15;3.38;;;13.70;63.10;;;;;;5068385;28;20301;-67
2022/03/03 10:49:24;;;;;;;8.00;3.08;;;13.70;63.10;;;;;;5086164;28;20211;-68
2022/03/03 10:51:50;;;;;;;7.20;3.00;;;13.60;65.00;;;;;;5088194;28;20245;-68
2022/03/03 10:54:16;;;;;;;8.02;3.65;;;14.40;61.60;;;;;;5088506;28;20182;-68
2022/03/03 10:56:49;;;;;;;4.20;2.65;;;14.10;61.00;;;;;;5088488;28;20161;-68
2022/03/03 10:59:25;;;;;;;8.65;3.40;;;14.00;61.00;;;;;;5092008;28;20218;-68
2022/03/03 11:01:52;;;;;;;6.70;3.78;;;14.20;68.10;;;;;;5091863;28;20195;-68
2022/03/03 11:04:20;;;;;;;5.70;3.55;;;14.50;61.80;;;;;;5091800;28;20223;-68
2022/03/03 11:06:53;;;;;;;4.57;3.40;;;13.80;62.10;;;;;;5091977;28;20641;-69
2022/03/03 11:09:20;;;;;;;8.48;3.38;;;14.00;61.60;;;;;;5091968;28;20188;-68
2022/03/03 11:11:46;;;;;;;7.65;3.35;;;13.20;63.30;;;;;;5071736;28;20636;-68
2022/03/03 11:14:12;;;;;;;4.32;2.78;;;13.40;63.80;;;;;;5071764;28;20188;-69
2022/03/03 11:16:41;;;;;;;5.53;2.78;;;14.10;61.80;;;;;;5071771;28;20176;-68
2022/03/03 11:19:10;;;;;;;5.40;2.63;;;14.20;61.40;;;;;;5071635;28;20184;-68
2022/03/03 11:21:36;;;;;;;5.40;2.67;;;13.50;62.00;;;;;;5077218;28;20223;-68
2022/03/03 11:24:02;;;;;;;3.80;2.70;;;13.40;64.50;;;;;;5091846;28;20192;-68
2022/03/03 11:26:34;;;;;;;5.63;2.35;;;14.00;61.00;;;;;;5091605;28;20160;-68
2022/03/03 11:29:16;;;;;;;4.53;2.30;;;14.20;62.30;;;;;;5091389;28;20184;-67
2022/03/03 11:32:00;;;;;;;4.10;2.55;;;13.60;60.30;;;;;;5089863;28;20192;-67
2022/03/03 11:34:32;;;;;;;3.90;2.67;;;13.00;61.60;;;;;;5090130;28;20172;-67
2022/03/03 11:37:03;;;;;;;4.00;2.70;;;13.60;62.10;;;;;;5091366;28;20171;-67
2022/03/03 11:39:45;;;;;;;7.07;3.10;;;13.60;61.00;;;;;;5073645;28;20199;-68
2022/03/03 11:42:40;;;;;;;6.32;2.60;;;14.00;59.80;;;;;;5071211;28;20211;-67
2022/03/03 11:45:08;;;;;;;6.63;3.08;;;14.00;57.70;;;;;;5071290;28;20157;-67
2022/03/03 11:47:42;;;;;;;4.80;2.55;;;13.50;59.60;;;;;;5076913;28;20199;-67
2022/03/03 11:50:16;;;;;;;3.55;1.98;;;14.70;60.20;;;;;;5091248;28;20156;-67
2022/03/03 11:52:59;;;;;;;6.32;2.88;;;15.70;59.00;;;;;;5091390;28;20188;-67
2022/03/03 11:55:43;;;;;;;5.35;2.92;;;16.30;55.80;;;;;;5070997;28;20198;-67
2022/03/03 11:58:15;;;;;;;4.70;2.78;;;15.50;57.60;;;;;;5070876;28;20152;-67
2022/03/03 12:00:45;;;;;;;9.55;3.58;;;16.10;58.80;;;;;;5070887;28;20165;-67
2022/03/03 12:03:17;;;;;;;7.63;4.57;;;17.00;58.20;;;;;;5069178;28;20239;-67
2022/03/03 12:06:02;;;;;;;5.53;2.97;;;15.80;55.90;;;;;;5069394;28;20184;-67
2022/03/03 12:08:30;;;;;;;2.55;1.90;;;15.90;55.90;;;;;;5068938;28;20228;-67
2022/03/03 12:11:05;;;;;;;6.63;2.72;;;15.90;55.80;;;;;;5069343;28;20336;-67
2022/03/03 12:13:35;;;;;;;4.38;2.47;;;15.80;56.30;;;;;;5069469;28;20172;-67
2022/03/03 12:16:33;;;;;;;3.67;2.20;;;15.80;54.60;;;;;;5069296;28;20165;-67
2022/03/03 12:19:02;;;;;;;2.55;2.03;;;15.20;53.30;;;;;;5070290;28;20223;-68
2022/03/03 12:21:48;;;;;;;8.25;2.55;;;14.50;55.00;;;;;;5071608;28;20199;-67
2022/03/03 12:24:14;;;;;;;7.65;2.63;;;14.00;56.40;;;;;;5070365;28;20214;-68
2022/03/03 12:29:33;;;;;;;3.47;2.33;;;14.40;56.90;;;;;;5070554;28;20223;-67
2022/03/03 12:32:24;;;;;;;4.75;2.08;;;15.30;55.30;;;;;;5070086;28;20184;-67
2022/03/03 12:34:55;;;;;;;2.63;1.80;;;15.50;53.50;;;;;;5070136;28;20176;-67
2022/03/03 12:37:21;;;;;;;5.82;2.30;;;14.60;54.40;;;;;;5070376;28;20157;-69
2022/03/03 12:39:49;;;;;;;5.32;2.75;;;13.40;55.30;;;;;;5070199;28;20153;-68
2022/03/03 12:42:20;;;;;;;3.80;1.95;;;12.50;58.60;;;;;;5069866;28;20194;-68
2022/03/03 12:44:53;;;;;;;3.42;1.92;;;11.60;58.90;;;;;;5070060;28;20165;-68
2022/03/03 12:47:35;;;;;;;2.10;1.60;;;10.90;60.50;;;;;;5072689;28;20222;-68
2022/03/03 12:50:14;;;;;;;3.22;1.98;;;10.30;62.90;;;;;;5080829;28;20172;-68
2022/03/03 12:52:43;;;;;;;6.18;2.17;;;10.20;62.50;;;;;;5084613;28;20195;-68
2022/03/03 12:55:10;;;;;;;2.65;2.20;;;10.00;62.10;;;;;;5090012;28;20148;-68